Time;durP1;ratioP1;P1;durP2;ratioP2;P2;SDS_P1;SDS_P2;PMS_P1;PMS_P2;Temp;Humidity;BMP_temperature;BMP_pressure;BME280_temperature;BME280_humidity;BME280_pressure;Samples;Min_cycle;Max_cycle;Signal;HPM_P1;HPM_P2
2021/07/15 07:47:04;;;;;;;23.58;14.35;;;;;;;20.12;80.33;98262.76;512959;1092;103383;-39
2021/07/15 07:57:12;;;;;;;21.10;12.15;;;;;;;20.10;80.70;98219.30;512855;1092;103121;-41
2021/07/15 08:07:20;;;;;;;22.78;12.90;;;;;;;19.90;80.99;98260.80;512668;1092;103549;-42
2021/07/15 08:17:28;;;;;;;28.67;15.90;;;;;;;20.02;80.54;98279.05;512814;1093;103097;-42
2021/07/15 08:27:37;;;;;;;28.17;16.40;;;;;;;20.05;81.17;98295.35;512673;1092;103122;-41
2021/07/15 08:37:46;;;;;;;13.73;10.83;;;;;;;19.99;80.90;98341.38;512856;1092;103044;-41
2021/07/15 08:58:03;;;;;;;16.20;10.75;;;;;;;20.26;80.46;98362.84;512815;1092;103419;-41
2021/07/15 09:08:09;;;;;;;;;;;;;;;20.28;80.83;98360.66;512839;1092;103244;-41
2021/07/15 09:18:19;;;;;;;19.75;10.90;;;;;;;20.40;80.47;98376.28;512918;1092;103611;-41
2021/07/15 09:28:31;;;;;;;14.37;9.07;;;;;;;20.40;80.34;98350.25;512839;1092;103489;-41
2021/07/15 09:38:41;;;;;;;14.85;9.00;;;;;;;20.44;80.64;98304.79;512885;1092;103468;-41
2021/07/15 09:58:56;;;;;;;;;;;;;;;21.01;79.64;98346.20;512841;1092;103102;-40
2021/07/15 10:09:03;;;;;;;14.10;6.57;;;;;;;21.62;79.41;98335.89;512854;1091;103134;-42
2021/07/15 10:19:10;;;;;;;8.23;5.68;;;;;;;22.46;78.53;98308.78;512740;1092;103116;-45
2021/07/15 10:29:17;;;;;;;7.67;4.97;;;;;;;22.86;76.07;98314.08;512835;1092;104347;-40
2021/07/15 10:39:28;;;;;;;8.45;4.88;;;;;;;22.92;74.77;98316.29;512815;1092;103108;-41
2021/07/15 10:49:36;;;;;;;11.30;5.50;;;;;;;23.80;74.48;98323.92;512804;1092;103094;-41
2021/07/15 10:59:45;;;;;;;10.13;4.23;;;;;;;24.14;73.25;98339.20;512958;1092;103119;-40
2021/07/15 11:09:54;;;;;;;7.45;4.35;;;;;;;24.22;71.79;98334.07;512805;1091;103088;-39
2021/07/15 11:20:04;;;;;;;9.57;4.77;;;;;;;24.64;71.21;98318.74;512827;1092;103096;-41
2021/07/15 11:30:13;;;;;;;12.27;5.10;;;;;;;24.99;70.89;98289.52;512818;1092;103482;-41
2021/07/15 11:40:47;;;;;;;8.90;5.27;;;;;;;26.01;70.75;98286.00;512854;1092;103116;-39
2021/07/15 11:51:15;;;;;;;8.00;4.70;;;;;;;26.35;69.86;98300.25;512631;1092;103147;-41
2021/07/15 12:01:23;;;;;;;6.80;5.37;;;;;;;25.99;66.82;98299.89;512874;1091;103143;-42
2021/07/15 12:11:31;;;;;;;9.13;5.10;;;;;;;25.77;65.74;98297.62;512702;1092;103127;-43
2021/07/15 12:21:38;;;;;;;13.85;6.40;;;;;;;26.23;66.02;98293.66;512804;1092;103130;-41
2021/07/15 12:31:46;;;;;;;10.67;5.17;;;;;;;27.11;66.89;98281.16;512758;1092;103126;-40
2021/07/15 12:41:54;;;;;;;8.20;5.90;;;;;;;27.07;65.30;98277.55;513034;1092;103147;-40
2021/07/15 12:52:04;;;;;;;8.63;5.83;;;;;;;27.43;65.54;98260.26;512803;1092;103423;-41
2021/07/15 13:02:11;;;;;;;11.40;7.30;;;;;;;27.63;64.28;98258.45;512209;1092;103460;-42
2021/07/15 13:32:56;;;;;;;13.85;8.75;;;;;;;27.77;63.32;98252.59;512135;1093;103127;-41
2021/07/15 13:43:03;;;;;;;12.20;7.90;;;;;;;27.39;62.79;98262.10;512858;1092;103103;-41
2021/07/15 13:53:13;;;;;;;14.53;9.87;;;;;;;27.11;62.62;98264.87;512917;1092;103067;-42
2021/07/15 14:03:22;;;;;;;13.80;9.33;;;;;;;27.39;61.61;98243.09;512703;1092;103160;-43
2021/07/15 14:13:30;;;;;;;12.83;9.53;;;;;;;27.58;60.71;98271.48;512865;1092;103148;-41
2021/07/15 14:23:39;;;;;;;13.07;10.33;;;;;;;27.61;60.22;98266.14;512802;1092;103139;-42
2021/07/15 14:33:48;;;;;;;15.13;9.60;;;;;;;27.63;59.81;98269.32;512709;1091;103460;-40
2021/07/15 14:43:56;;;;;;;14.03;10.37;;;;;;;27.49;58.16;98266.24;512814;1092;103108;-41
2021/07/15 14:54:02;;;;;;;12.47;10.10;;;;;;;27.33;59.18;98249.93;512632;1093;103463;-41
2021/07/15 15:04:08;;;;;;;;;;;;;;;27.00;59.60;98254.88;512784;1092;103105;-42
2021/07/15 15:14:16;;;;;;;18.90;11.75;;;;;;;26.61;60.21;98255.33;512761;1092;103116;-41
2021/07/15 15:24:25;;;;;;;20.83;11.83;;;;;;;26.57;60.48;98246.31;512862;1092;103065;-40
2021/07/15 15:34:33;;;;;;;15.97;10.97;;;;;;;26.81;60.49;98233.79;512814;1093;103104;-41
2021/07/15 15:44:39;;;;;;;12.13;9.53;;;;;;;27.02;60.05;98241.75;512780;1092;103119;-41
2021/07/15 15:54:46;;;;;;;;;;;;;;;26.70;59.47;98236.19;512847;1092;103414;-42
2021/07/15 16:04:54;;;;;;;14.70;8.00;;;;;;;26.09;60.01;98251.81;512791;1091;103124;-41
2021/07/15 16:15:06;;;;;;;8.93;7.83;;;;;;;25.99;60.60;98240.28;512898;1092;103163;-44
2021/07/15 16:25:18;;;;;;;10.37;8.17;;;;;;;26.12;60.54;98249.20;512851;1092;103103;-43
2021/07/15 16:35:26;;;;;;;11.70;8.63;;;;;;;25.97;60.45;98249.89;513151;1091;103164;-42
2021/07/15 16:45:34;;;;;;;9.20;8.13;;;;;;;25.88;60.06;98270.89;512829;1091;103097;-42
2021/07/15 16:55:44;;;;;;;9.87;7.73;;;;;;;25.65;60.40;98273.22;512712;1092;103613;-42
2021/07/15 17:05:51;;;;;;;14.10;8.30;;;;;;;25.46;60.27;98265.63;512830;1091;103179;-41
2021/07/15 17:15:58;;;;;;;9.55;7.80;;;;;;;25.28;60.86;98256.12;512667;1092;103135;-42
2021/07/15 17:26:09;;;;;;;12.10;8.57;;;;;;;25.02;61.43;98261.80;512699;1091;103152;-42
2021/07/15 17:36:17;;;;;;;15.20;9.53;;;;;;;24.77;61.97;98250.07;512841;1091;103135;-41
2021/07/15 17:46:24;;;;;;;12.20;9.77;;;;;;;24.44;62.52;98223.80;512748;1092;103546;-43
2021/07/15 17:56:31;;;;;;;11.47;8.47;;;;;;;24.29;63.10;98223.59;512759;1091;103036;-42
2021/07/15 18:06:39;;;;;;;10.95;9.15;;;;;;;24.09;63.38;98222.42;512816;1091;103135;-41
2021/07/15 18:16:47;;;;;;;13.93;10.00;;;;;;;23.93;64.18;98237.64;512820;1092;103183;-41
2021/07/15 18:26:55;;;;;;;15.47;9.67;;;;;;;23.31;64.51;98246.28;512826;1092;103101;-44
2021/07/15 18:37:03;;;;;;;22.77;11.93;;;;;;;22.90;65.63;98277.28;512741;1091;103106;-42
2021/07/15 18:47:08;;;;;;;15.30;11.10;;;;;;;22.66;66.07;98286.61;512858;1092;103108;-43
2021/07/15 18:57:16;;;;;;;16.93;10.33;;;;;;;22.53;67.26;98292.17;512891;1092;103479;-42
2021/07/15 19:07:25;;;;;;;21.35;13.55;;;;;;;22.19;67.40;98317.92;512744;1092;103135;-41
2021/07/15 19:17:31;;;;;;;;;;;;;;;21.93;68.86;98360.09;512779;1092;103074;-40
2021/07/15 19:27:39;;;;;;;24.40;14.23;;;;;;;21.75;68.72;98343.86;512704;1092;103499;-42
2021/07/15 19:37:47;;;;;;;23.23;14.80;;;;;;;21.73;69.53;98359.52;512708;1092;103130;-42
2021/07/15 19:47:56;;;;;;;20.17;14.10;;;;;;;21.59;69.70;98371.48;512053;1092;103156;-42
2021/07/15 19:58:03;;;;;;;17.77;14.20;;;;;;;21.66;70.10;98364.55;512383;1092;103169;-41
2021/07/15 20:08:11;;;;;;;21.65;15.23;;;;;;;21.59;70.30;98369.59;512111;1092;103406;-42
2021/07/15 20:18:18;;;;;;;20.27;14.73;;;;;;;21.65;71.12;98360.27;512147;1092;103374;-42
2021/07/15 20:28:25;;;;;;;22.77;15.17;;;;;;;21.56;71.46;98369.41;512151;1093;103220;-43
2021/07/15 20:38:33;;;;;;;25.43;15.93;;;;;;;21.30;71.18;98363.87;512068;1092;103148;-44
2021/07/15 20:48:39;;;;;;;19.03;15.00;;;;;;;21.05;71.38;98357.94;512266;1092;103145;-43
2021/07/15 20:58:47;;;;;;;18.77;13.67;;;;;;;21.02;71.99;98341.63;512556;1092;103106;-42
2021/07/15 21:08:55;;;;;;;19.43;13.23;;;;;;;21.07;72.41;98344.22;512233;1092;103500;-43
2021/07/15 21:19:03;;;;;;;21.58;12.88;;;;;;;21.09;72.56;98358.94;512060;1092;103428;-42
2021/07/15 21:29:09;;;;;;;21.53;13.80;;;;;;;21.17;73.08;98357.41;512477;1092;103052;-43
2021/07/15 21:39:16;;;;;;;16.07;11.50;;;;;;;21.12;73.05;98382.52;512203;1092;103066;-44
2021/07/15 21:49:24;;;;;;;22.95;13.38;;;;;;;21.09;73.00;98388.52;512058;1092;103546;-43
2021/07/15 21:59:32;;;;;;;17.73;12.57;;;;;;;21.08;73.49;98399.57;512315;1091;103107;-43
2021/07/15 22:09:39;;;;;;;17.05;13.15;;;;;;;21.04;73.53;98398.56;512258;1091;103151;-43
2021/07/15 22:19:48;;;;;;;19.13;12.50;;;;;;;20.96;73.41;98389.34;512304;1093;103153;-42
2021/07/15 22:29:59;;;;;;;19.10;12.93;;;;;;;20.84;73.84;98389.88;512221;1092;103423;-43
2021/07/15 22:40:08;;;;;;;19.00;13.50;;;;;;;20.79;74.36;98398.03;512488;1092;103383;-42
2021/07/15 22:50:19;;;;;;;19.00;13.30;;;;;;;20.76;74.64;98411.27;512015;1092;103159;-43
2021/07/15 23:00:29;;;;;;;24.00;15.27;;;;;;;20.80;74.38;98394.24;512220;1092;103128;-41
2021/07/15 23:10:40;;;;;;;21.30;15.27;;;;;;;20.66;74.77;98393.48;512338;1092;103104;-43
2021/07/15 23:20:47;;;;;;;24.73;17.23;;;;;;;20.65;74.59;98393.79;512235;1092;103435;-43
2021/07/15 23:30:54;;;;;;;29.37;17.77;;;;;;;20.61;75.28;98349.83;512169;1092;103104;-42
2021/07/15 23:41:01;;;;;;;23.43;16.50;;;;;;;20.42;75.37;98342.69;512229;1093;103543;-43
2021/07/15 23:51:10;;;;;;;26.70;18.87;;;;;;;20.51;76.00;98342.77;512402;1092;103453;-42
